createdAt,value
2022-11-20T00:01:26.570Z,98867.72
2022-11-20T00:03:55.150Z,98864.22
2022-11-20T00:06:22.425Z,98866.09
2022-11-20T00:08:49.541Z,98864.00
2022-11-20T00:11:18.956Z,98860.72
2022-11-20T00:13:47.036Z,98852.13
2022-11-20T00:16:17.618Z,98855.44
2022-11-20T00:18:45.626Z,98844.66
2022-11-20T00:21:15.018Z,98842.94
2022-11-20T00:23:42.613Z,98850.25
2022-11-20T00:26:12.009Z,98839.59
2022-11-20T00:28:38.666Z,98835.66
2022-11-20T00:31:14.398Z,98846.94
2022-11-20T00:33:42.019Z,98857.97
2022-11-20T00:36:11.365Z,98846.44
2022-11-20T00:38:38.247Z,98845.88
2022-11-20T00:41:07.676Z,98850.03
2022-11-20T00:43:34.518Z,98847.19
2022-11-20T00:46:05.405Z,98844.56
2022-11-20T00:48:32.551Z,98856.38
2022-11-20T00:50:59.727Z,98858.91
2022-11-20T00:53:26.668Z,98861.38
2022-11-20T00:55:55.110Z,98852.28
2022-11-20T00:58:22.742Z,98848.88
2022-11-20T01:00:50.586Z,98853.72
2022-11-20T01:03:22.714Z,98849.50
2022-11-20T01:05:52.406Z,98858.16
2022-11-20T01:08:19.014Z,98866.38
2022-11-20T01:10:45.520Z,98873.16
2022-11-20T01:13:30.779Z,98868.13
2022-11-20T01:16:03.944Z,98861.81
2022-11-20T01:18:30.604Z,98859.28
2022-11-20T01:21:02.068Z,98853.88
2022-11-20T01:23:31.847Z,98853.88
2022-11-20T01:25:59.960Z,98850.41
2022-11-20T01:28:26.362Z,98852.88
2022-11-20T01:30:53.957Z,98840.50
2022-11-20T01:33:20.353Z,98844.00
2022-11-20T01:35:46.899Z,98845.69
2022-11-20T01:38:13.291Z,98828.72
2022-11-20T01:40:39.878Z,98834.19
2022-11-20T01:43:23.445Z,98825.78
2022-11-20T01:46:01.979Z,98825.03
2022-11-20T01:48:39.660Z,98821.53
2022-11-20T01:51:13.775Z,98812.00
2022-11-20T01:53:40.564Z,98807.34
2022-11-20T01:56:14.927Z,98815.56
2022-11-20T01:58:49.661Z,98809.16
2022-11-20T02:01:16.472Z,98807.06
2022-11-20T02:03:44.846Z,98812.91
2022-11-20T02:06:20.563Z,98818.94
2022-11-20T02:08:47.163Z,98823.06
2022-11-20T02:11:13.882Z,98817.59
2022-11-20T02:13:44.253Z,98810.31
2022-11-20T02:16:26.761Z,98813.81
2022-11-20T02:18:55.736Z,98822.69
2022-11-20T02:21:41.215Z,98828.53
2022-11-20T02:24:15.470Z,98815.13
2022-11-20T02:26:54.063Z,98826.88
2022-11-20T02:29:26.811Z,98825.06
2022-11-20T02:31:56.870Z,98827.88
2022-11-20T02:34:23.300Z,98838.50
2022-11-20T02:36:51.641Z,98840.00
2022-11-20T02:39:18.773Z,98840.19
2022-11-20T02:41:45.519Z,98837.34
2022-11-20T02:44:12.080Z,98839.28
2022-11-20T02:46:38.470Z,98830.91
2022-11-20T02:49:05.810Z,98834.06
2022-11-20T02:51:33.354Z,98826.88
2022-11-20T02:53:59.795Z,98828.88
2022-11-20T02:56:26.639Z,98823.16
2022-11-20T02:58:53.482Z,98826.34
2022-11-20T03:01:20.046Z,98819.84
2022-11-20T03:03:46.583Z,98805.81
2022-11-20T03:06:14.790Z,98811.00
2022-11-20T03:08:41.182Z,98809.94
2022-11-20T03:11:08.612Z,98804.38
2022-11-20T03:13:35.550Z,98800.97
2022-11-20T03:16:14.234Z,98790.78
2022-11-20T03:18:42.058Z,98798.44
2022-11-20T03:21:11.037Z,98802.28
2022-11-20T03:23:38.391Z,98792.56
2022-11-20T03:26:10.086Z,98784.47
2022-11-20T03:28:36.677Z,98788.50
2022-11-20T03:31:09.498Z,98784.91
2022-11-20T03:33:35.896Z,98782.72
2022-11-20T03:36:08.489Z,98792.78
2022-11-20T03:38:35.776Z,98801.34
2022-11-20T03:41:08.207Z,98800.13
2022-11-20T03:43:34.989Z,98803.50
2022-11-20T03:46:01.821Z,98800.44
2022-11-20T03:48:28.368Z,98795.03
2022-11-20T03:51:11.639Z,98789.66
2022-11-20T03:53:38.715Z,98793.69
2022-11-20T03:56:06.105Z,98793.69
2022-11-20T03:58:35.041Z,98793.03
2022-11-20T04:01:18.853Z,98798.13
2022-11-20T04:03:46.147Z,98801.03
2022-11-20T04:06:17.606Z,98793.28
2022-11-20T04:08:44.378Z,98798.78
2022-11-20T04:11:19.877Z,98799.63
2022-11-20T04:13:54.800Z,98785.63
2022-11-20T04:16:22.503Z,98781.22
2022-11-20T04:18:53.840Z,98783.31
2022-11-20T04:21:20.463Z,98789.44
2022-11-20T04:23:46.944Z,98772.84
2022-11-20T04:26:13.746Z,98767.75
2022-11-20T04:28:40.691Z,98765.94
2022-11-20T04:31:10.116Z,98769.31
2022-11-20T04:33:37.695Z,98782.25
2022-11-20T04:36:07.206Z,98773.13
2022-11-20T04:38:34.357Z,98779.81
2022-11-20T04:41:02.458Z,98779.81
2022-11-20T04:43:29.620Z,98773.28
2022-11-20T04:45:57.656Z,98776.97
2022-11-20T04:48:25.158Z,98767.53
2022-11-20T04:50:52.436Z,98770.00
2022-11-20T04:53:19.462Z,98770.19
2022-11-20T04:55:46.169Z,98755.34
2022-11-20T04:58:13.501Z,98756.44
2022-11-20T05:00:40.309Z,98750.50
2022-11-20T05:03:06.724Z,98754.53
2022-11-20T05:05:35.371Z,98771.13
2022-11-20T05:08:01.816Z,98766.03
2022-11-20T05:10:28.714Z,98765.00
2022-11-20T05:12:55.114Z,98767.44
2022-11-20T05:15:21.680Z,98763.94
2022-11-20T05:17:51.495Z,98766.28
2022-11-20T05:20:18.529Z,98763.63
2022-11-20T05:22:45.189Z,98766.19
2022-11-20T05:25:12.500Z,98765.97
2022-11-20T05:27:38.917Z,98766.19
2022-11-20T05:30:06.420Z,98761.81
2022-11-20T05:32:33.092Z,98763.63
2022-11-20T05:34:59.559Z,98761.72
2022-11-20T05:37:26.180Z,98755.78
2022-11-20T05:39:52.578Z,98761.81
2022-11-20T05:42:31.034Z,98757.28
2022-11-20T05:45:02.972Z,98760.88
2022-11-20T05:47:33.753Z,98762.78
2022-11-20T05:50:00.346Z,98764.47
2022-11-20T05:52:30.269Z,98766.28
2022-11-20T05:54:57.029Z,98769.66
2022-11-20T05:57:23.399Z,98771.06
2022-11-20T05:59:49.910Z,98764.91
2022-11-20T06:02:16.396Z,98758.78
2022-11-20T06:04:42.840Z,98772.75
2022-11-20T06:07:09.383Z,98779.09
2022-11-20T06:09:35.866Z,98778.88
2022-11-20T06:12:04.630Z,98785.25
2022-11-20T06:14:31.100Z,98790.13
2022-11-20T06:16:57.678Z,98789.25
2022-11-20T06:19:24.340Z,98782.19
2022-11-20T06:21:52.032Z,98778.66
2022-11-20T06:24:18.724Z,98784.16
2022-11-20T06:26:45.716Z,98783.22
2022-11-20T06:29:12.256Z,98795.72
2022-11-20T06:31:38.842Z,98786.72
2022-11-20T06:34:07.002Z,98785.91
2022-11-20T06:36:34.423Z,98792.66
2022-11-20T06:39:01.975Z,98791.16
2022-11-20T06:41:28.949Z,98792.00
2022-11-20T06:43:55.520Z,98784.84
2022-11-20T06:46:23.083Z,98785.63
2022-11-20T06:48:50.459Z,98790.69
2022-11-20T06:51:19.477Z,98789.59
2022-11-20T06:53:46.316Z,98798.06
2022-11-20T06:56:12.980Z,98796.97
2022-11-20T06:58:39.417Z,98799.63
2022-11-20T07:01:10.080Z,98798.59
2022-11-20T07:03:37.355Z,98802.28
2022-11-20T07:06:05.784Z,98812.66
2022-11-20T07:08:32.903Z,98814.47
2022-11-20T07:11:04.459Z,98810.25
2022-11-20T07:13:30.921Z,98805.63
2022-11-20T07:16:05.554Z,98803.81
2022-11-20T07:18:31.959Z,98814.00
2022-11-20T07:21:06.036Z,98813.03
2022-11-20T07:23:32.768Z,98827.66
2022-11-20T07:26:03.955Z,98830.72
2022-11-20T07:28:30.286Z,98825.34
2022-11-20T07:30:56.794Z,98832.34
2022-11-20T07:33:23.173Z,98834.75
2022-11-20T07:35:49.733Z,98841.75
2022-11-20T07:38:16.148Z,98833.59
2022-11-20T07:40:42.772Z,98831.59
2022-11-20T07:43:09.215Z,98827.59
2022-11-20T07:45:37.945Z,98830.88
2022-11-20T07:48:04.852Z,98832.34
2022-11-20T07:50:31.327Z,98834.25
2022-11-20T07:53:05.722Z,98823.78
2022-11-20T07:55:33.338Z,98821.22
2022-11-20T07:58:00.186Z,98820.94
2022-11-20T08:00:27.667Z,98826.66
2022-11-20T08:02:54.332Z,98817.25
2022-11-20T08:05:21.225Z,98829.75
2022-11-20T08:07:47.927Z,98821.59
2022-11-20T08:10:16.923Z,98830.81
2022-11-20T08:13:11.762Z,98823.84
2022-11-20T08:15:40.228Z,98820.84
2022-11-20T08:20:59.222Z,98821.81
2022-11-20T08:23:25.645Z,98821.16
2022-11-20T08:25:52.249Z,98819.59
2022-11-20T08:28:21.586Z,98822.25
2022-11-20T08:30:49.202Z,98833.56
2022-11-20T08:33:15.678Z,98833.25
2022-11-20T08:35:42.664Z,98835.25
2022-11-20T08:38:09.901Z,98835.25
2022-11-20T08:40:36.437Z,98832.50
2022-11-20T08:43:02.915Z,98838.03
2022-11-20T08:45:33.712Z,98833.78
2022-11-20T08:48:02.077Z,98828.88
2022-11-20T08:50:28.596Z,98836.19
2022-11-20T08:52:54.965Z,98826.50
2022-11-20T08:55:21.549Z,98826.19
2022-11-20T08:57:50.885Z,98823.84
2022-11-20T09:00:18.019Z,98824.41
2022-11-20T09:02:44.478Z,98818.38
2022-11-20T09:05:10.911Z,98827.97
2022-11-20T09:07:37.567Z,98823.19
2022-11-20T09:10:23.083Z,98824.41
2022-11-20T09:12:51.510Z,98824.72
2022-11-20T09:15:18.646Z,98824.72
2022-11-20T09:17:55.860Z,98818.41
2022-11-20T09:20:22.689Z,98814.91
2022-11-20T09:22:49.256Z,98824.91
2022-11-20T09:25:15.882Z,98829.22
2022-11-20T09:27:46.661Z,98821.88
2022-11-20T09:30:14.972Z,98822.28
2022-11-20T09:32:41.702Z,98821.50
2022-11-20T09:35:09.007Z,98821.53
2022-11-20T09:37:35.910Z,98817.00
2022-11-20T09:40:02.950Z,98822.22
2022-11-20T09:42:38.908Z,98820.63
2022-11-20T09:45:22.627Z,98817.34
2022-11-20T09:48:10.105Z,98815.81
2022-11-20T09:50:55.103Z,98808.53
2022-11-20T09:53:36.770Z,98799.16
2022-11-20T09:56:05.770Z,98805.47
2022-11-20T09:58:43.690Z,98801.13
2022-11-20T10:01:15.145Z,98795.53
2022-11-20T10:04:05.357Z,98792.16
2022-11-20T10:06:34.731Z,98783.72
2022-11-20T10:09:13.128Z,98789.97
2022-11-20T10:12:07.668Z,98788.47
2022-11-20T10:14:42.706Z,98786.66
2022-11-20T10:17:31.104Z,98784.25
2022-11-20T10:20:16.946Z,98791.66
2022-11-20T10:22:46.332Z,98779.69
2022-11-20T10:25:19.090Z,98776.28
2022-11-20T10:28:07.368Z,98767.13
2022-11-20T10:30:40.324Z,98756.97
2022-11-20T10:33:22.028Z,98751.91
2022-11-20T10:36:17.873Z,98766.53
2022-11-20T10:38:50.470Z,98759.41
2022-11-20T10:41:27.242Z,98761.81
2022-11-20T10:44:36.539Z,98750.81
2022-11-20T10:47:05.735Z,98742.09
2022-11-20T10:49:35.093Z,98748.16
2022-11-20T10:52:20.353Z,98745.50
2022-11-20T10:55:07.870Z,98721.63
2022-11-20T10:58:10.333Z,98720.28
2022-11-20T11:00:36.795Z,98707.56
2022-11-20T11:03:04.061Z,98707.69
2022-11-20T11:05:50.942Z,98706.38
2022-11-20T11:08:20.035Z,98706.59
2022-11-20T11:10:56.117Z,98711.34
2022-11-20T11:13:24.857Z,98706.50
2022-11-20T11:15:52.141Z,98700.84
2022-11-20T11:18:31.080Z,98705.19
2022-11-20T11:21:00.441Z,98704.69
2022-11-20T11:23:33.078Z,98697.47
2022-11-20T11:26:01.770Z,98688.53
2022-11-20T11:28:29.339Z,98688.53
2022-11-20T11:30:56.850Z,98686.81
2022-11-20T11:33:26.146Z,98684.88
2022-11-20T11:35:59.158Z,98679.97
2022-11-20T11:38:30.837Z,98674.75
2022-11-20T11:40:58.525Z,98680.31
2022-11-20T11:43:46.450Z,98677.78
2022-11-20T11:46:21.720Z,98666.97
2022-11-20T11:49:09.453Z,98672.72
2022-11-20T11:51:47.531Z,98670.44
2022-11-20T11:54:24.979Z,98668.22
2022-11-20T11:56:52.564Z,98663.59
2022-11-20T12:00:14.995Z,98658.72
2022-11-20T12:02:50.259Z,98657.81
2022-11-20T12:05:24.475Z,98657.78
2022-11-20T12:08:11.161Z,98647.72
2022-11-20T12:10:42.156Z,98653.66
2022-11-20T12:13:33.695Z,98650.63
2022-11-20T12:16:01.573Z,98646.13
2022-11-20T12:18:29.281Z,98641.94
2022-11-20T12:21:24.139Z,98637.19
2022-11-20T12:23:59.682Z,98636.78
2022-11-20T12:26:35.256Z,98630.50
2022-11-20T12:29:24.877Z,98617.00
2022-11-20T12:32:16.583Z,98615.69
2022-11-20T12:34:46.709Z,98611.41
2022-11-20T12:37:42.041Z,98604.47
2022-11-20T12:40:41.162Z,98594.09
2022-11-20T12:43:44.361Z,98589.84
2022-11-20T12:46:25.978Z,98579.72
2022-11-20T12:49:07.566Z,98583.88
2022-11-20T12:51:52.821Z,98579.34
2022-11-20T12:54:54.100Z,98578.44
2022-11-20T12:57:45.662Z,98581.09
2022-11-20T13:00:19.591Z,98588.91
2022-11-20T13:03:14.244Z,98579.16
2022-11-20T13:06:19.604Z,98573.69
2022-11-20T13:08:54.274Z,98565.75
2022-11-20T13:11:49.103Z,98563.81
2022-11-20T13:14:45.893Z,98567.81
2022-11-20T13:17:23.220Z,98559.91
2022-11-20T13:19:59.614Z,98554.28
2022-11-20T13:22:43.757Z,98552.38
2022-11-20T13:25:16.225Z,98538.63
2022-11-20T13:27:49.592Z,98538.03
2022-11-20T13:30:19.153Z,98535.09
2022-11-20T13:32:56.018Z,98530.75
2022-11-20T13:35:34.786Z,98530.63
2022-11-20T13:38:11.687Z,98528.56
2022-11-20T13:40:53.384Z,98516.53
2022-11-20T13:43:23.084Z,98524.94
2022-11-20T13:46:01.762Z,98517.19
2022-11-20T13:48:41.389Z,98511.00
2022-11-20T13:51:55.856Z,98508.94
2022-11-20T13:54:52.862Z,98507.97
2022-11-20T13:57:54.735Z,98497.59
2022-11-20T14:00:23.554Z,98494.38
2022-11-20T14:03:08.455Z,98497.09
2022-11-20T14:05:39.433Z,98486.94
2022-11-20T14:08:12.625Z,98483.44
2022-11-20T14:10:40.380Z,98484.28
2022-11-20T14:13:21.387Z,98488.59
2022-11-20T14:15:47.882Z,98477.78
2022-11-20T14:18:20.948Z,98470.34
2022-11-20T14:20:47.764Z,98468.81
2022-11-20T14:23:30.094Z,98461.22
2022-11-20T14:25:56.997Z,98457.00
2022-11-20T14:28:31.589Z,98459.66
2022-11-20T14:30:58.661Z,98457.44
2022-11-20T14:33:27.759Z,98454.75
2022-11-20T14:35:57.214Z,98452.53
2022-11-20T14:38:29.694Z,98444.13
2022-11-20T14:41:07.143Z,98436.25
2022-11-20T14:43:34.248Z,98436.66
2022-11-20T14:46:07.062Z,98440.47
2022-11-20T14:48:47.375Z,98442.28
2022-11-20T14:51:42.212Z,98438.47
2022-11-20T14:54:12.806Z,98430.53
2022-11-20T14:56:39.650Z,98428.41
2022-11-20T14:59:06.435Z,98428.41
2022-11-20T15:01:35.113Z,98434.00
2022-11-20T15:04:03.176Z,98421.06
2022-11-20T15:06:30.488Z,98427.78
2022-11-20T15:08:57.193Z,98421.25
2022-11-20T15:11:31.782Z,98426.41
2022-11-20T15:14:02.537Z,98414.41
2022-11-20T15:16:29.142Z,98411.94
2022-11-20T15:18:56.199Z,98406.81
2022-11-20T15:21:23.064Z,98411.81
2022-11-20T15:23:49.943Z,98404.84
2022-11-20T15:26:27.131Z,98403.00
2022-11-20T15:28:53.965Z,98412.50
2022-11-20T15:31:23.290Z,98407.88
2022-11-20T15:33:50.183Z,98401.75
2022-11-20T15:36:16.862Z,98407.94
2022-11-20T15:38:43.313Z,98417.16
2022-11-20T15:41:11.109Z,98416.88
2022-11-20T15:43:37.612Z,98411.25
2022-11-20T15:46:09.656Z,98413.53
2022-11-20T15:48:44.635Z,98414.66
2022-11-20T15:51:27.390Z,98405.41
2022-11-20T15:53:55.511Z,98408.78
2022-11-20T15:56:22.209Z,98417.59
2022-11-20T15:58:48.971Z,98408.63
2022-11-20T16:01:18.384Z,98398.94
2022-11-20T16:03:45.247Z,98401.75
2022-11-20T16:06:12.234Z,98400.66
2022-11-20T16:08:38.589Z,98392.81
2022-11-20T16:11:05.359Z,98386.34
2022-11-20T16:13:51.543Z,98381.88
2022-11-20T16:16:23.753Z,98380.44
2022-11-20T16:18:50.886Z,98366.72
2022-11-20T16:21:17.312Z,98365.56
2022-11-20T16:23:43.978Z,98360.09
2022-11-20T16:26:20.534Z,98358.81
2022-11-20T16:28:47.222Z,98357.84
2022-11-20T16:31:16.804Z,98352.78
2022-11-20T16:33:44.247Z,98356.72
2022-11-20T16:36:13.100Z,98351.00
2022-11-20T16:38:40.148Z,98348.44
2022-11-20T16:41:14.145Z,98343.13
2022-11-20T16:43:52.557Z,98327.41
2022-11-20T16:46:21.109Z,98321.84
2022-11-20T16:49:01.633Z,98313.16
2022-11-20T16:51:30.563Z,98310.06
2022-11-20T16:53:57.587Z,98306.00
2022-11-20T16:56:27.452Z,98304.16
2022-11-20T16:58:56.402Z,98297.72
2022-11-20T17:01:24.567Z,98297.59
2022-11-20T17:03:58.453Z,98290.47
2022-11-20T17:06:28.280Z,98284.00
2022-11-20T17:08:56.273Z,98285.41
2022-11-20T17:11:24.637Z,98279.41
2022-11-20T17:13:52.049Z,98284.16
2022-11-20T17:16:21.301Z,98283.47
2022-11-20T17:18:50.025Z,98285.03
2022-11-20T17:21:18.954Z,98275.59
2022-11-20T17:23:46.782Z,98274.78
2022-11-20T17:26:21.937Z,98264.97
2022-11-20T17:28:56.515Z,98266.66
2022-11-20T17:31:23.088Z,98258.00
2022-11-20T17:33:49.439Z,98258.81
2022-11-20T17:36:17.357Z,98255.91
2022-11-20T17:38:44.539Z,98250.16
2022-11-20T17:41:14.400Z,98252.84
2022-11-20T17:43:42.683Z,98230.56
2022-11-20T17:46:12.166Z,98240.38
2022-11-20T17:48:39.983Z,98234.63
2022-11-20T17:51:06.530Z,98226.50
2022-11-20T17:53:35.238Z,98219.94
2022-11-20T17:56:20.841Z,98218.53
2022-11-20T17:58:47.240Z,98215.03
2022-11-20T18:01:14.316Z,98203.69
2022-11-20T18:03:41.200Z,98211.22
2022-11-20T18:06:13.487Z,98188.00
2022-11-20T18:08:40.289Z,98175.97
2022-11-20T18:11:18.629Z,98178.75
2022-11-20T18:14:05.510Z,98177.78
2022-11-20T18:16:42.856Z,98184.09
2022-11-20T18:19:11.767Z,98174.56
2022-11-20T18:21:38.602Z,98170.06
2022-11-20T18:24:05.631Z,98165.59
2022-11-20T18:26:32.048Z,98158.31
2022-11-20T18:29:02.141Z,98157.19
2022-11-20T18:31:31.189Z,98140.25
2022-11-20T18:33:57.829Z,98154.69
2022-11-20T18:36:30.199Z,98155.81
2022-11-20T18:38:59.908Z,98150.63
2022-11-20T18:41:48.774Z,98156.22
2022-11-20T18:44:35.870Z,98145.72
2022-11-20T18:47:13.755Z,98130.56
2022-11-20T18:49:41.692Z,98119.38
2022-11-20T18:52:08.282Z,98121.16
2022-11-20T18:54:36.848Z,98122.31
2022-11-20T18:57:04.966Z,98124.69
2022-11-20T18:59:32.209Z,98123.69
2022-11-20T19:02:01.726Z,98119.38
2022-11-20T19:04:29.522Z,98113.19
2022-11-20T19:06:56.328Z,98118.09
2022-11-20T19:09:24.030Z,98115.69
2022-11-20T19:11:51.618Z,98123.41
2022-11-20T19:14:18.115Z,98127.03
2022-11-20T19:16:44.841Z,98124.38
2022-11-20T19:19:11.724Z,98121.56
2022-11-20T19:21:38.333Z,98120.28
2022-11-20T19:24:05.479Z,98116.50
2022-11-20T19:26:35.387Z,98112.00
2022-11-20T19:29:01.899Z,98109.75
2022-11-20T19:31:28.670Z,98109.47
2022-11-20T19:33:57.175Z,98108.09
2022-11-20T19:36:28.310Z,98112.13
2022-11-20T19:38:54.991Z,98120.69
2022-11-20T19:41:31.278Z,98112.41
2022-11-20T19:43:59.384Z,98113.63
2022-11-20T19:46:27.315Z,98117.03
2022-11-20T19:48:54.585Z,98106.38
2022-11-20T19:51:24.260Z,98103.56
2022-11-20T19:53:51.077Z,98109.75
2022-11-20T19:56:17.659Z,98107.09
2022-11-20T19:58:44.560Z,98098.94
2022-11-20T20:01:13.960Z,98090.09
2022-11-20T20:03:41.423Z,98085.16
2022-11-20T20:06:10.363Z,98088.84
2022-11-20T20:08:37.910Z,98084.09
2022-11-20T20:11:19.089Z,98086.47
2022-11-20T20:13:46.787Z,98088.97
2022-11-20T20:16:16.015Z,98083.78
2022-11-20T20:18:42.961Z,98091.91
2022-11-20T20:21:12.163Z,98091.19
2022-11-20T20:23:39.156Z,98094.56
2022-11-20T20:26:07.508Z,98097.66
2022-11-20T20:28:35.136Z,98104.91
2022-11-20T20:31:09.681Z,98101.56
2022-11-20T20:33:37.629Z,98095.66
2022-11-20T20:36:05.530Z,98100.13
2022-11-20T20:38:32.297Z,98093.94
2022-11-20T20:40:58.873Z,98092.97
2022-11-20T20:43:26.039Z,98096.91
2022-11-20T20:45:52.913Z,98092.59
2022-11-20T20:48:22.105Z,98091.97
2022-11-20T20:50:55.720Z,98085.69
2022-11-20T20:53:22.944Z,98086.75
2022-11-20T20:55:57.627Z,98089.28
2022-11-20T20:58:24.568Z,98090.50
2022-11-20T21:00:51.714Z,98087.16
2022-11-20T21:03:19.024Z,98088.88
2022-11-20T21:05:46.598Z,98087.28
2022-11-20T21:08:24.224Z,98087.16
2022-11-20T21:11:06.198Z,98097.81
2022-11-20T21:13:34.138Z,98083.50
2022-11-20T21:16:00.925Z,98084.63
2022-11-20T21:18:27.686Z,98087.16
2022-11-20T21:21:13.420Z,98090.34
2022-11-20T21:23:41.898Z,98077.72
2022-11-20T21:26:09.459Z,98071.84
2022-11-20T21:28:37.565Z,98077.16
2022-11-20T21:31:08.407Z,98075.03
2022-11-20T21:33:38.836Z,98075.81
2022-11-20T21:36:07.982Z,98069.50
2022-11-20T21:38:35.476Z,98071.25
2022-11-20T21:41:04.037Z,98081.63
2022-11-20T21:43:30.887Z,98082.88
2022-11-20T21:46:08.871Z,98081.63
2022-11-20T21:48:37.150Z,98087.94
2022-11-20T21:51:07.677Z,98089.09
2022-11-20T21:53:34.685Z,98087.78
2022-11-20T21:56:01.634Z,98091.91
2022-11-20T21:58:28.411Z,98080.09
2022-11-20T22:00:54.946Z,98091.44
2022-11-20T22:03:21.511Z,98091.22
2022-11-20T22:05:58.371Z,98081.53
2022-11-20T22:08:26.303Z,98088.69
2022-11-20T22:10:59.773Z,98085.50
2022-11-20T22:13:46.030Z,98100.06
2022-11-20T22:16:13.515Z,98099.34
2022-11-20T22:18:44.750Z,98118.59
2022-11-20T22:21:12.295Z,98101.78
2022-11-20T22:23:39.384Z,98105.13
2022-11-20T22:26:08.616Z,98111.41
2022-11-20T22:28:35.980Z,98102.88
2022-11-20T22:31:04.355Z,98103.03
2022-11-20T22:33:32.183Z,98118.03
2022-11-20T22:36:05.565Z,98108.97
2022-11-20T22:38:38.876Z,98103.03
2022-11-20T22:41:08.149Z,98111.34
2022-11-20T22:43:34.762Z,98116.81
2022-11-20T22:46:09.082Z,98120.44
2022-11-20T22:48:36.940Z,98123.38
2022-11-20T22:51:15.104Z,98109.50
2022-11-20T22:53:42.735Z,98129.69
2022-11-20T22:56:12.306Z,98140.34
2022-11-20T22:58:40.516Z,98146.13
2022-11-20T23:01:06.829Z,98147.25
2022-11-20T23:03:33.467Z,98130.41
2022-11-20T23:06:00.270Z,98140.44
2022-11-20T23:08:27.354Z,98139.06
2022-11-20T23:10:59.042Z,98149.72
2022-11-20T23:13:25.643Z,98135.72
2022-11-20T23:15:51.997Z,98135.13
2022-11-20T23:18:18.522Z,98148.03
2022-11-20T23:20:44.982Z,98151.53
2022-11-20T23:23:11.432Z,98140.88
2022-11-20T23:25:37.775Z,98146.06
2022-11-20T23:28:04.560Z,98158.41
2022-11-20T23:30:30.919Z,98166.69
2022-11-20T23:32:57.380Z,98160.66
2022-11-20T23:35:23.900Z,98162.06
2022-11-20T23:37:50.400Z,98164.56
2022-11-20T23:40:16.971Z,98167.94
2022-11-20T23:43:03.402Z,98165.44
2022-11-20T23:45:30.263Z,98154.06
2022-11-20T23:47:57.397Z,98166.84
2022-11-20T23:50:23.910Z,98182.53
2022-11-20T23:52:50.300Z,98171.63
2022-11-20T23:55:16.758Z,98167.13
2022-11-20T23:57:43.147Z,98174.44
